Time;durP1;ratioP1;P1;durP2;ratioP2;P2;SDS_P1;SDS_P2;PMS_P1;PMS_P2;Temp;Humidity;BMP_temperature;BMP_pressure;BME280_temperature;BME280_humidity;BME280_pressure;Samples;Min_cycle;Max_cycle;Signal;HPM_P1;HPM_P2
2021/07/18 00:00:11;;;;;;;;;;;;;;;16.43;100.00;101210.72;5071732;28;19985;-70
2021/07/18 00:02:37;;;;;;;;;;;;;;;16.45;100.00;101213.28;5071628;28;20338;-71
2021/07/18 00:05:04;;;;;;;;;;;;;;;16.37;100.00;101206.72;5071815;28;19924;-70
2021/07/18 00:07:30;;;;;;;;;;;;;;;16.32;100.00;101211.78;5071634;28;19964;-69
2021/07/18 00:09:58;;;;;;;;;;;;;;;16.29;100.00;101212.09;5071954;28;20020;-70
2021/07/18 00:12:24;;;;;;;;;;;;;;;16.23;100.00;101202.59;5071337;28;20375;-70
2021/07/18 00:14:50;;;;;;;;;;;;;;;16.20;100.00;101208.34;5071713;28;19968;-70
2021/07/18 00:17:16;;;;;;;;;;;;;;;16.15;100.00;101215.31;5071414;28;20413;-70
2021/07/18 00:19:43;;;;;;;;;;;;;;;16.11;100.00;101220.19;5071736;28;19928;-70
2021/07/18 00:22:09;;;;;;;;;;;;;;;16.01;100.00;101222.97;5071746;28;19924;-70
2021/07/18 00:24:35;;;;;;;;;;;;;;;15.94;100.00;101219.13;5071306;28;19970;-69
2021/07/18 00:27:03;;;;;;;;;;;;;;;15.92;100.00;101225.75;5071401;28;19932;-70
2021/07/18 00:29:30;;;;;;;;;;;;;;;15.84;100.00;101224.59;5070950;28;20388;-70
2021/07/18 00:31:56;;;;;;;;;;;;;;;15.80;100.00;101227.75;5071363;28;19929;-70
2021/07/18 00:34:22;;;;;;;;;;;;;;;15.80;100.00;101225.91;5071104;28;19954;-70
2021/07/18 00:36:49;;;;;;;;;;;;;;;15.76;100.00;101221.69;5071473;28;19924;-69
2021/07/18 00:39:15;;;;;;;;;;;;;;;15.75;100.00;101222.72;5071893;28;19924;-69
2021/07/18 00:41:41;;;;;;;;;;;;;;;15.79;100.00;101215.94;5075513;28;19935;-70
2021/07/18 00:44:10;;;;;;;;;;;;;;;15.81;100.00;101227.63;5075440;28;20013;-69
2021/07/18 00:46:36;;;;;;;;;;;;;;;15.82;100.00;101217.53;5074011;28;20399;-70
2021/07/18 00:49:02;;;;;;;;;;;;;;;15.82;100.00;101218.41;5075276;28;20027;-69
2021/07/18 00:51:29;;;;;;;;;;;;;;;15.81;100.00;101216.69;5075085;28;19928;-69
2021/07/18 00:53:55;;;;;;;;;;;;;;;15.81;100.00;101211.22;5075182;28;20350;-70
2021/07/18 00:56:22;;;;;;;;;;;;;;;15.84;100.00;101210.06;5075229;28;20027;-70
2021/07/18 00:58:53;;;;;;;;;;;;;;;15.83;100.00;101213.81;5075287;28;19924;-69
2021/07/18 01:01:21;;;;;;;;;;;;;;;15.78;100.00;101216.06;5075351;28;20306;-70
2021/07/18 01:03:48;;;;;;;;;;;;;;;15.73;100.00;101214.66;5075221;28;19932;-70
2021/07/18 01:06:14;;;;;;;;;;;;;;;15.69;100.00;101212.38;5073666;28;20031;-70
2021/07/18 01:08:40;;;;;;;;;;;;;;;15.69;100.00;101215.09;5074875;28;20031;-70
2021/07/18 01:11:06;;;;;;;;;;;;;;;15.71;100.00;101213.06;5075279;28;20014;-70
2021/07/18 01:13:33;;;;;;;;;;;;;;;15.66;100.00;101209.91;5074712;28;19924;-70
2021/07/18 01:15:59;;;;;;;;;;;;;;;15.66;100.00;101210.78;5075335;28;19974;-70
2021/07/18 01:18:27;;;;;;;;;;;;;;;15.70;100.00;101212.22;5074745;28;20455;-70
2021/07/18 01:20:54;;;;;;;;;;;;;;;15.77;100.00;101206.13;5076110;28;20015;-69
2021/07/18 01:23:22;;;;;;;;;;;;;;;15.78;100.00;101207.88;5074595;28;20019;-69
2021/07/18 01:25:52;;;;;;;;;;;;;;;15.81;100.00;101207.63;5074685;28;19930;-70
2021/07/18 01:28:19;;;;;;;;;;;;;;;15.79;100.00;101202.25;5074363;28;19924;-70
2021/07/18 01:30:45;;;;;;;;;;;;;;;15.82;100.00;101202.00;5074377;28;20023;-70
2021/07/18 01:33:11;;;;;;;;;;;;;;;15.78;100.00;101214.22;5073463;28;20032;-70
2021/07/18 01:35:38;;;;;;;;;;;;;;;15.76;100.00;101215.38;5073404;28;19924;-70
2021/07/18 01:38:06;;;;;;;;;;;;;;;15.76;100.00;101215.38;5073253;28;20391;-70
2021/07/18 01:40:34;;;;;;;;;;;;;;;15.73;100.00;101214.66;5073025;28;20010;-70
2021/07/18 01:43:00;;;;;;;;;;;;;;;15.73;100.00;101214.66;5073104;28;20069;-70
2021/07/18 01:45:26;;;;;;;;;;;;;;;15.69;100.00;101218.69;5073033;28;20023;-70
2021/07/18 01:47:52;;;;;;;;;;;;;;;15.69;100.00;101215.94;5073119;28;20114;-69
2021/07/18 01:50:19;;;;;;;;;;;;;;;15.69;100.00;101215.94;5072783;28;20040;-69
2021/07/18 01:52:45;;;;;;;;;;;;;;;15.67;100.00;101211.63;5073287;28;19931;-69
2021/07/18 01:55:12;;;;;;;;;;;;;;;15.61;100.00;101207.63;5073027;28;20418;-69
2021/07/18 01:57:40;;;;;;;;;;;;;;;15.59;100.00;101214.25;5072544;28;19928;-70
2021/07/18 02:00:09;;;;;;;;;;;;;;;15.59;100.00;101222.44;5072929;28;19931;-69
2021/07/18 02:02:40;;;;;;;;;;;;;;;15.53;100.00;101224.75;5072420;28;19924;-70
2021/07/18 02:05:07;;;;;;;;;;;;;;;15.55;100.00;101221.88;5071769;28;20445;-69
2021/07/18 02:07:33;;;;;;;;;;;;;;;15.55;100.00;101220.00;5072913;28;19970;-69
2021/07/18 02:09:59;;;;;;;;;;;;;;;15.61;100.00;101225.91;5072789;28;20396;-70
2021/07/18 02:12:26;;;;;;;;;;;;;;;15.59;100.00;101225.19;5072862;28;20015;-70
2021/07/18 02:14:53;;;;;;;;;;;;;;;15.66;100.00;101223.59;5072509;28;20027;-70
2021/07/18 02:17:19;;;;;;;;;;;;;;;15.66;100.00;101229.06;5072664;28;19935;-70
2021/07/18 02:19:46;;;;;;;;;;;;;;;15.69;100.00;101223.31;5072701;28;20461;-70
2021/07/18 02:22:12;;;;;;;;;;;;;;;15.68;100.00;101214.22;5072683;28;20398;-69
2021/07/18 02:24:38;;;;;;;;;;;;;;;15.69;100.00;101215.09;5072569;28;20011;-70
2021/07/18 02:27:07;;;;;;;;;;;;;;;15.71;100.00;101213.06;5072378;28;19924;-69
2021/07/18 02:29:33;;;;;;;;;;;;;;;15.69;100.00;101212.38;5072749;28;20268;-69
2021/07/18 02:32:01;;;;;;;;;;;;;;;15.71;100.00;101213.94;5012712;28;1696583;-70
2021/07/18 02:34:27;;;;;;;;;;;;;;;15.73;100.00;101217.38;5072955;28;19924;-70
2021/07/18 02:36:53;;;;;;;;;;;;;;;15.70;100.00;101214.06;5072969;28;20027;-70
2021/07/18 02:39:21;;;;;;;;;;;;;;;15.72;100.00;101206.59;5073622;28;20023;-69
2021/07/18 02:41:47;;;;;;;;;;;;;;;15.72;100.00;101214.78;5073379;28;19924;-69
2021/07/18 02:44:14;;;;;;;;;;;;;;;15.74;100.00;101219.13;5073090;28;19968;-69
2021/07/18 02:46:40;;;;;;;;;;;;;;;15.69;100.00;101212.38;5071956;28;19963;-70
2021/07/18 02:49:08;;;;;;;;;;;;;;;15.64;100.00;101209.19;5073139;28;19931;-69
2021/07/18 02:51:34;;;;;;;;;;;;;;;15.60;100.00;101205.88;5071526;28;20463;-69
2021/07/18 02:54:01;;;;;;;;;;;;;;;15.59;100.00;101208.78;5072736;28;20302;-69
2021/07/18 02:56:27;;;;;;;;;;;;;;;15.57;100.00;101207.03;5072789;28;20043;-69
2021/07/18 02:58:53;;;;;;;;;;;;;;;15.53;100.00;101207.50;5072758;28;19932;-70
2021/07/18 03:01:19;;;;;;;;;;;;;;;15.52;100.00;101208.50;5072564;28;19925;-70
2021/07/18 03:03:46;;;;;;;;;;;;;;;15.48;100.00;101202.44;5071886;28;20030;-69
2021/07/18 03:06:13;;;;;;;;;;;;;;;15.46;100.00;101201.72;5072593;28;19963;-69
2021/07/18 03:08:40;;;;;;;;;;;;;;;15.44;100.00;101201.00;5072388;28;20032;-69
2021/07/18 03:11:06;;;;;;;;;;;;;;;15.41;100.00;101195.81;5072299;28;20515;-69
2021/07/18 03:13:32;;;;;;;;;;;;;;;15.38;100.00;101190.66;5072339;28;19974;-69
2021/07/18 03:15:58;;;;;;;;;;;;;;;15.38;100.00;101199.72;5072068;28;19956;-68
2021/07/18 03:18:25;;;;;;;;;;;;;;;15.37;100.00;101200.72;5072238;28;20391;-68
2021/07/18 03:20:51;;;;;;;;;;;;;;;15.38;100.00;101199.72;5072284;28;19978;-68
2021/07/18 03:23:18;;;;;;;;;;;;;;;15.40;100.00;101196.81;5072303;28;19967;-69
2021/07/18 03:25:45;;;;;;;;;;;;;;;15.38;100.00;101190.66;5074139;28;19971;-69
2021/07/18 03:28:11;;;;;;;;;;;;;;;15.38;100.00;101190.66;5072254;28;19924;-68
2021/07/18 03:30:37;;;;;;;;;;;;;;;15.38;100.00;101187.91;5072974;28;20019;-68
2021/07/18 03:33:04;;;;;;;;;;;;;;;15.42;100.00;101185.75;5073211;28;20027;-67
2021/07/18 03:35:30;;;;;;;;;;;;;;;15.45;100.00;101190.94;5071735;28;20346;-68
2021/07/18 03:37:57;;;;;;;;;;;;;;;15.44;100.00;101184.59;5080209;28;19924;-68
2021/07/18 03:40:24;;;;;;;;;;;;;;;15.48;100.00;101186.03;5071483;28;19924;-68
2021/07/18 03:42:51;;;;;;;;;;;;;;;15.51;100.00;101185.75;5079837;28;19932;-68
2021/07/18 03:45:17;;;;;;;;;;;;;;;15.52;100.00;101192.91;5090214;28;20385;-68
2021/07/18 03:47:44;;;;;;;;;;;;;;;15.52;100.00;101190.19;5088429;28;19992;-69
2021/07/18 03:50:10;;;;;;;;;;;;;;;15.53;100.00;101186.44;5090312;28;19924;-68
2021/07/18 03:52:37;;;;;;;;;;;;;;;15.57;100.00;101195.25;5091919;28;19924;-68
2021/07/18 03:55:03;;;;;;;;;;;;;;;15.60;100.00;101192.19;5092072;28;20018;-68
2021/07/18 03:57:31;;;;;;;;;;;;;;;15.62;100.00;101197.53;5091911;28;19931;-68
2021/07/18 03:59:57;;;;;;;;;;;;;;;15.65;100.00;101194.50;5092304;28;20370;-68
2021/07/18 04:02:23;;;;;;;;;;;;;;;15.69;100.00;101199.53;5072572;28;20019;-68
2021/07/18 04:04:50;;;;;;;;;;;;;;;15.73;100.00;101200.97;5071639;28;20015;-68
2021/07/18 04:07:16;;;;;;;;;;;;;;;15.73;100.00;101203.69;5089794;28;20370;-68
2021/07/18 04:09:42;;;;;;;;;;;;;;;15.79;100.00;101201.38;5091308;28;19924;-68
2021/07/18 04:12:09;;;;;;;;;;;;;;;15.82;100.00;101212.94;5089942;28;20019;-68
2021/07/18 04:14:36;;;;;;;;;;;;;;;15.87;100.00;101207.00;5091641;28;19971;-68
2021/07/18 04:17:03;;;;;;;;;;;;;;;15.92;100.00;101203.84;5083446;28;19928;-68
2021/07/18 04:19:29;;;;;;;;;;;;;;;15.95;100.00;101214.50;5092087;28;19931;-67
2021/07/18 04:21:55;;;;;;;;;;;;;;;16.00;100.00;101214.91;5090147;28;19960;-67
2021/07/18 04:24:22;;;;;;;;;;;;;;;16.06;100.00;101222.53;5091833;28;20399;-67
2021/07/18 04:26:48;;;;;;;;;;;;;;;16.10;100.00;101218.50;5077182;28;19924;-67
2021/07/18 04:29:14;;;;;;;;;;;;;;;16.18;100.00;101220.47;5071661;28;20100;-68
2021/07/18 04:31:42;;;;;;;;;;;;;;;16.21;100.00;101221.03;5072192;28;20019;-68
2021/07/18 04:34:08;;;;;;;;;;;;;;;16.27;100.00;101221.47;5071582;28;20408;-68
2021/07/18 04:36:34;;;;;;;;;;;;;;;16.36;100.00;101224.16;5088283;28;20284;-68
2021/07/18 04:39:01;;;;;;;;;;;;;;;16.44;100.00;101220.66;5091569;28;20040;-68
2021/07/18 04:41:27;;;;;;;;;;;;;;;16.51;100.00;101223.66;5089795;28;19967;-68
2021/07/18 04:43:54;;;;;;;;;;;;;;;16.56;100.00;101222.19;5091231;28;19978;-68
2021/07/18 04:46:20;;;;;;;;;;;;;;;16.64;100.00;101221.44;5076195;28;20019;-67
2021/07/18 04:48:48;;;;;;;;;;;;;;;16.71;100.00;101221.69;5072611;28;19947;-67
2021/07/18 04:51:14;;;;;;;;;;;;;;;16.81;100.00;101222.50;5071468;28;20324;-68
2021/07/18 04:53:41;;;;;;;;;;;;;;;16.88;100.00;101209.88;5082774;28;19948;-68
2021/07/18 04:56:07;;;;;;;;;;;;;;;16.99;100.00;101210.72;5091474;28;20387;-68
2021/07/18 04:58:33;;;;;;;;;;;;;;;17.06;100.00;101207.22;5089536;28;19964;-68
2021/07/18 05:01:00;;;;;;;;;;;;;;;17.11;100.00;101211.38;5091738;28;19924;-68
2021/07/18 05:03:26;;;;;;;;;;;;;;;17.18;100.00;101212.44;5084198;28;19964;-68
2021/07/18 05:05:54;;;;;;;;;;;;;;;17.24;100.00;101212.69;5071328;28;19931;-68
2021/07/18 05:08:20;;;;;;;;;;;;;;;17.37;100.00;101219.66;5070841;28;19964;-68
2021/07/18 05:10:47;;;;;;;;;;;;;;;17.45;100.00;101214.25;5073784;28;19925;-68
2021/07/18 05:13:13;;;;;;;;;;;;;;;17.56;100.00;101213.16;5091403;28;20450;-68
2021/07/18 05:15:39;;;;;;;;;;;;;;;17.61;100.00;101212.66;5088860;28;19924;-68
2021/07/18 05:18:09;;;;;;;;;;;;;;;17.71;100.00;101216.19;5090553;28;20019;-68
2021/07/18 05:20:35;;;;;;;;;;;;;;;17.84;100.00;101207.53;5072131;28;19936;-68
2021/07/18 05:23:03;;;;;;;;;;;;;;;17.97;100.00;101213.50;5071172;28;19979;-67
2021/07/18 05:25:29;;;;;;;;;;;;;;;18.13;100.00;101217.34;5072645;28;20451;-68
2021/07/18 05:27:56;;;;;;;;;;;;;;;18.17;100.00;101216.00;5074635;28;19924;-68
2021/07/18 05:30:22;;;;;;;;;;;;;;;18.19;100.00;101216.72;5085072;28;20458;-68
2021/07/18 05:32:48;;;;;;;;;;;;;;;18.23;100.00;101212.63;5074268;28;19960;-68
2021/07/18 05:35:14;;;;;;;;;;;;;;;18.25;100.00;101202.31;5073495;28;20395;-68
2021/07/18 05:37:41;;;;;;;;;;;;;;;18.31;100.00;101204.41;5074357;28;20010;-68
2021/07/18 05:40:10;;;;;;;;;;;;;;;18.38;100.00;101204.63;5075846;28;20015;-67
2021/07/18 05:42:36;;;;;;;;;;;;;;;18.48;100.00;101208.09;5074378;28;19966;-68
2021/07/18 05:45:04;;;;;;;;;;;;;;;18.65;100.00;101211.78;5089514;28;20347;-68
2021/07/18 05:47:33;;;;;;;;;;;;;;;18.67;100.00;101212.47;5094940;28;19924;-68
2021/07/18 05:49:59;;;;;;;;;;;;;;;18.84;100.00;101205.13;5084296;28;19935;-68
2021/07/18 05:52:26;;;;;;;;;;;;;;;18.83;100.00;101192.41;5094394;28;20018;-68
2021/07/18 05:54:52;;;;;;;;;;;;;;;18.96;100.00;101199.34;5081775;28;19936;-67
2021/07/18 05:57:20;;;;;;;;;;;;;;;18.98;100.00;101200.06;5074144;28;20039;-68
2021/07/18 05:59:46;;;;;;;;;;;;;;;19.06;100.00;101208.31;5074891;28;19924;-68
2021/07/18 06:02:13;;;;;;;;;;;;;;;19.33;100.00;101209.03;5078568;28;20243;-67
2021/07/18 06:04:39;;;;;;;;;;;;;;;19.44;100.00;101197.72;5094036;28;19960;-67
2021/07/18 06:07:05;;;;;;;;;;;;;;;19.73;100.00;101202.69;5086228;28;19931;-67
2021/07/18 06:09:32;;;;;;;;;;;;;;;19.92;100.00;101199.75;5073983;28;20023;-67
2021/07/18 06:11:58;;;;;;;;;;;;;;;19.90;100.00;101199.94;5075797;28;19925;-67
2021/07/18 06:14:25;;;;;;;;;;;;;;;19.93;100.00;101202.34;5083863;28;19927;-67
2021/07/18 06:16:52;;;;;;;;;;;;;;;20.55;100.00;101196.13;5092153;28;20007;-67
2021/07/18 06:19:18;;;;;;;;;;;;;;;20.66;100.00;101205.03;5079764;28;20034;-67
2021/07/18 06:21:44;;;;;;;;;;;;;;;21.02;100.00;101193.50;5073652;28;19929;-68
2021/07/18 06:24:11;;;;;;;;;;;;;;;21.37;100.00;101197.53;5081003;28;20115;-67
2021/07/18 06:26:37;;;;;;;;;;;;;;;21.64;100.00;101186.13;5086782;28;19956;-67
2021/07/18 06:29:03;;;;;;;;;;;;;;;21.72;100.00;101192.44;5073602;28;19932;-66
2021/07/18 06:31:31;;;;;;;;;;;;;;;21.88;100.00;101196.94;5080073;28;19924;-66
2021/07/18 06:33:57;;;;;;;;;;;;;;;22.17;100.00;101192.50;5093314;28;20459;-66
2021/07/18 06:36:23;;;;;;;;;;;;;;;22.49;100.00;101189.56;5073001;28;20386;-67
2021/07/18 06:38:50;;;;;;;;;;;;;;;22.24;100.00;101198.97;5072561;28;20015;-66
2021/07/18 06:41:16;;;;;;;;;;;;;;;21.57;100.00;101200.69;5077184;28;20021;-68
2021/07/18 06:43:42;;;;;;;;;;;;;;;21.48;100.00;101196.25;5074247;28;19936;-67
2021/07/18 06:46:09;;;;;;;;;;;;;;;21.30;100.00;101199.34;5093151;28;20105;-68
2021/07/18 06:48:36;;;;;;;;;;;;;;;21.99;100.00;101200.31;5082688;28;20008;-71
2021/07/18 06:51:04;;;;;;;;;;;;;;;22.11;100.00;101187.72;5078214;28;20290;-70
2021/07/18 06:53:30;;;;;;;;;;;;;;;22.66;100.00;101184.66;5072692;28;19977;-71
2021/07/18 06:55:56;;;;;;;;;;;;;;;22.78;100.00;101180.34;5079707;28;20011;-70
2021/07/18 06:58:23;;;;;;;;;;;;;;;23.26;100.00;101184.53;5090039;28;20391;-71
2021/07/18 07:00:49;;;;;;;;;;;;;;;23.34;100.00;101176.09;5091558;28;20014;-70
2021/07/18 07:03:15;;;;;;;;;;;;;;;22.56;100.00;101185.81;5089432;28;19959;-71
2021/07/18 07:05:43;;;;;;;;;;;;;;;22.23;100.00;101191.75;5092542;28;20042;-71
2021/07/18 07:08:09;;;;;;;;;;;;;;;22.42;100.00;101188.63;5091750;28;19955;-71
2021/07/18 07:10:35;;;;;;;;;;;;;;;23.12;100.00;101184.34;5092070;28;20048;-71
2021/07/18 07:13:02;;;;;;;;;;;;;;;23.66;100.00;101202.38;5093017;28;20020;-71
2021/07/18 07:15:28;;;;;;;;;;;;;;;23.16;100.00;101195.94;5092729;28;19924;-71
2021/07/18 07:17:54;;;;;;;;;;;;;;;22.85;100.00;101197.91;5091352;28;20024;-71
2021/07/18 07:20:21;;;;;;;;;;;;;;;22.55;100.00;101197.97;5091610;28;19930;-71
2021/07/18 07:22:48;;;;;;;;;;;;;;;22.70;100.00;101197.06;5091467;28;20014;-71
2021/07/18 07:25:15;;;;;;;;;;;;;;;22.92;100.00;101195.22;5091495;28;20015;-71
2021/07/18 07:27:42;;;;;;;;;;;;;;;23.52;100.00;101198.63;5090790;28;20010;-71
2021/07/18 07:30:09;;;;;;;;;;;;;;;24.58;100.00;101196.81;5091484;28;20417;-71
2021/07/18 07:32:36;;;;;;;;;;;;;;;25.01;100.00;101199.38;5090702;28;20392;-71
2021/07/18 07:35:03;;;;;;;;;;;;;;;25.33;100.00;101182.13;5090780;28;20022;-69
2021/07/18 07:37:29;;;;;;;;;;;;;;;25.48;100.00;101188.38;5090809;28;20018;-67
2021/07/18 07:39:57;;;;;;;;;;;;;;;24.83;100.00;101177.75;5071635;28;20360;-67
2021/07/18 07:42:23;;;;;;;;;;;;;;;24.24;100.00;101187.47;5069876;28;19956;-67
2021/07/18 07:44:50;;;;;;;;;;;;;;;24.89;100.00;101193.56;5069900;28;20016;-67
2021/07/18 07:47:16;;;;;;;;;;;;;;;24.27;100.00;101186.22;5068920;28;19974;-69
2021/07/18 07:49:43;;;;;;;;;;;;;;;25.33;100.00;101188.53;5067538;28;19928;-69
2021/07/18 07:52:10;;;;;;;;;;;;;;;24.95;100.00;101189.09;5069883;28;19924;-69
2021/07/18 07:54:36;;;;;;;;;;;;;;;24.76;100.00;101198.22;5070067;28;20356;-69
2021/07/18 07:57:04;;;;;;;;;;;;;;;24.71;100.00;101196.06;5070092;28;20036;-69
2021/07/18 07:59:30;;;;;;;;;;;;;;;25.04;100.00;101195.31;5075069;28;20030;-69
2021/07/18 08:01:58;;;;;;;;;;;;;;;25.09;100.00;101195.53;5090671;28;19967;-69
2021/07/18 08:04:24;;;;;;;;;;;;;;;25.56;100.00;101196.50;5084824;28;19978;-69
2021/07/18 08:06:50;;;;;;;;;;;;;;;25.06;100.00;101195.97;5068571;28;20015;-66
2021/07/18 08:09:17;;;;;;;;;;;;;;;24.88;100.00;101208.50;5070282;28;20475;-70
2021/07/18 08:11:43;;;;;;;;;;;;;;;24.98;100.00;101205.34;5070100;28;20236;-70
2021/07/18 08:14:11;;;;;;;;;;;;;;;24.60;100.00;101196.59;5070061;28;19924;-71
2021/07/18 08:16:37;;;;;;;;;;;;;;;24.79;100.00;101204.22;5069706;28;20027;-70
2021/07/18 08:19:03;;;;;;;;;;;;;;;25.60;100.00;101196.06;5070069;28;20020;-70
2021/07/18 08:21:30;;;;;;;;;;;;;;;26.10;100.00;101196.50;5071034;28;20360;-70
2021/07/18 08:23:56;;;;;;;;;;;;;;;26.06;100.00;101200.78;5071633;28;19928;-70
2021/07/18 08:26:22;;;;;;;;;;;;;;;25.52;100.00;101200.78;5071617;28;20402;-68
2021/07/18 08:28:48;;;;;;;;;;;;;;;24.84;100.00;101204.44;5073762;28;20771;-66
2021/07/18 08:31:17;;;;;;;;;;;;;;;25.06;100.00;101207.91;5092089;28;19962;-67
2021/07/18 08:33:43;;;;;;;;;;;;;;;25.31;100.00;101195.34;5090244;28;20349;-71
2021/07/18 08:36:10;;;;;;;;;;;;;;;24.96;100.00;101207.47;5089129;28;19967;-71
2021/07/18 08:38:39;;;;;;;;;;;;;;;26.19;100.00;101203.56;5089672;28;19932;-71
2021/07/18 08:41:05;;;;;;;;;;;;;;;26.76;100.00;101200.19;5073071;28;20510;-71
2021/07/18 08:43:32;;;;;;;;;;;;;;;26.29;100.00;101196.69;5060753;28;19931;-71
2021/07/18 08:45:59;;;;;;;;;;;;;;;26.73;100.00;101193.13;5091305;28;20022;-70
2021/07/18 08:48:26;;;;;;;;;;;;;;;26.98;100.00;101195.16;5073895;28;19955;-71
2021/07/18 08:50:52;;;;;;;;;;;;;;;26.94;100.00;101191.09;5071210;28;19952;-70
2021/07/18 08:53:19;;;;;;;;;;;;;;;26.68;100.00;101189.25;5071945;28;19959;-70
2021/07/18 08:55:45;;;;;;;;;;;;;;;27.38;100.00;101192.13;5072808;28;19978;-71
2021/07/18 08:58:15;;;;;;;;;;;;;;;27.72;100.00;101186.28;5073919;28;20037;-70
2021/07/18 09:00:42;;;;;;;;;;;;;;;28.02;100.00;101193.97;5070808;28;19982;-72
2021/07/18 09:03:08;;;;;;;;;;;;;;;28.51;100.00;101192.16;5075105;28;19967;-71
2021/07/18 09:05:36;;;;;;;;;;;;;;;29.12;100.00;101188.63;5074256;28;20035;-68
2021/07/18 09:08:02;;;;;;;;;;;;;;;28.35;100.00;101188.03;5072897;28;19959;-68
2021/07/18 09:10:30;;;;;;;;;;;;;;;27.37;100.00;101190.41;5082509;28;20011;-68
2021/07/18 09:13:03;;;;;;;;;;;;;;;26.84;100.00;101185.16;5089790;28;19947;-68
2021/07/18 09:15:40;;;;;;;;;;;;;;;26.60;100.00;101192.28;5074647;28;19928;-68
2021/07/18 09:18:07;;;;;;;;;;;;;;;27.96;100.00;101181.78;5078658;28;19924;-68
2021/07/18 09:20:40;;;;;;;;;;;;;;;28.54;100.00;101186.13;5074699;28;20019;-68
2021/07/18 09:23:09;;;;;;;;;;;;;;;27.78;100.00;101187.31;5074737;28;20321;-69
2021/07/18 09:25:35;;;;;;;;;;;;;;;27.46;100.00;101187.34;5094888;28;19948;-70
2021/07/18 09:28:10;;;;;;;;;;;;;;;27.08;100.00;101191.88;5094426;28;20018;-70
2021/07/18 09:30:36;;;;;;;;;;;;;;;28.21;100.00;101198.50;5094842;28;20015;-70
2021/07/18 09:33:02;;;;;;;;;;;;;;;28.16;100.00;101187.19;5095122;28;20022;-70
2021/07/18 09:35:28;;;;;;;;;;;;;;;26.89;100.00;101194.53;5073697;28;19979;-67
2021/07/18 09:37:56;;;;;;;;;;;;;;;26.31;100.00;101189.84;5071741;28;19979;-67
2021/07/18 09:40:23;;;;;;;;;;;;;;;26.22;100.00;101186.41;5073312;28;20208;-67
2021/07/18 09:42:50;;;;;;;;;;;;;;;26.37;100.00;101190.88;5073283;28;20020;-67
2021/07/18 09:45:18;;;;;;;;;;;;;;;25.98;100.00;101189.88;5084830;28;19931;-67
2021/07/18 09:47:58;;;;;;;;;;;;;;;26.37;100.00;101188.94;5072546;28;20421;-67
2021/07/18 09:50:26;;;;;;;;;;;;;;;26.80;100.00;101190.31;5088369;28;19924;-67
2021/07/18 09:53:04;;;;;;;;;;;;;;;27.11;100.00;101187.78;5092105;28;20034;-67
2021/07/18 09:55:32;;;;;;;;;;;;;;;27.38;100.00;101183.78;5092131;28;20028;-67
2021/07/18 09:57:58;;;;;;;;;;;;;;;27.98;100.00;101178.75;5082135;28;19924;-67
2021/07/18 10:00:36;;;;;;;;;;;;;;;28.36;100.00;101175.78;5073939;28;20035;-67
2021/07/18 10:03:09;;;;;;;;;;;;;;;27.98;100.00;101178.75;5085411;28;20450;-67
2021/07/18 10:05:35;;;;;;;;;;;;;;;27.11;100.00;101183.09;5094216;28;19923;-67
2021/07/18 10:08:05;;;;;;;;;;;;;;;27.32;100.00;101173.50;5092153;28;19924;-67
2021/07/18 10:10:33;;;;;;;;;;;;;;;27.76;100.00;101175.53;5076462;28;19963;-67
2021/07/18 10:13:00;;;;;;;;;;;;;;;27.38;100.00;101172.63;5083256;28;20026;-67
2021/07/18 10:15:26;;;;;;;;;;;;;;;28.20;100.00;101179.22;5093821;28;20510;-67
2021/07/18 10:17:53;;;;;;;;;;;;;;;29.00;100.00;101169.00;5089405;28;20027;-67
2021/07/18 10:20:19;;;;;;;;;;;;;;;27.59;100.00;101169.69;5090384;28;19930;-68
2021/07/18 10:22:46;;;;;;;;;;;;;;;27.25;100.00;101166.28;5092067;28;19932;-68
2021/07/18 10:25:14;;;;;;;;;;;;;;;27.21;100.00;101172.28;5091399;28;20022;-71
2021/07/18 10:27:42;;;;;;;;;;;;;;;28.16;100.00;101164.84;5092131;28;20019;-71
2021/07/18 10:30:09;;;;;;;;;;;;;;;28.09;100.00;101157.63;5088270;28;19927;-71
2021/07/18 10:32:36;;;;;;;;;;;;;;;28.19;100.00;101169.13;5091678;28;20010;-71
2021/07/18 10:35:04;;;;;;;;;;;;;;;26.67;100.00;101156.94;5081273;28;20019;-71
2021/07/18 10:37:37;;;;;;;;;;;;;;;26.51;100.00;101159.16;5072644;28;20027;-71
2021/07/18 10:40:10;;;;;;;;;;;;;;;27.87;100.00;101160.84;5076408;28;19925;-71
2021/07/18 10:42:36;;;;;;;;;;;;;;;28.43;100.00;101166.50;5052681;28;20432;-71
2021/07/18 10:45:17;;;;;;;;;;;;;;;28.97;100.00;101158.28;5059567;28;19986;-71
2021/07/18 10:47:55;;;;;;;;;;;;;;;28.76;99.92;101149.34;5072828;28;19924;-69
2021/07/18 10:50:41;;;;;;;;;;;;;;;28.32;99.75;101152.22;5073028;28;20024;-69
2021/07/18 10:53:16;;;;;;;;;;;;;;;28.53;100.00;101156.47;5087155;28;19931;-69
2021/07/18 10:55:42;;;;;;;;;;;;;;;27.66;100.00;101157.41;5089770;28;19967;-68
2021/07/18 10:58:09;;;;;;;;;;;;;;;28.05;100.00;101154.47;5089936;28;19934;-69
2021/07/18 11:00:35;;;;;;;;;;;;;;;27.66;100.00;101149.03;5072660;28;20023;-68
2021/07/18 11:03:02;;;;;;;;;;;;;;;28.49;100.00;101148.78;5074145;28;20031;-69
2021/07/18 11:05:37;;;;;;;;;;;;;;;27.39;100.00;101146.47;5092816;28;19927;-68
2021/07/18 11:08:05;;;;;;;;;;;;;;;26.37;100.00;101140.78;5090364;28;19924;-69
2021/07/18 11:10:45;;;;;;;;;;;;;;;26.77;100.00;101151.78;5072371;28;19928;-68
2021/07/18 11:13:12;;;;;;;;;;;;;;;27.56;100.00;101141.16;5074791;28;19976;-68
2021/07/18 11:15:38;;;;;;;;;;;;;;;28.62;100.00;101139.41;5092257;28;19998;-68
2021/07/18 11:18:06;;;;;;;;;;;;;;;28.75;100.00;101144.00;5091021;28;19928;-68
2021/07/18 11:20:36;;;;;;;;;;;;;;;28.04;100.00;101149.97;5092667;28;19932;-68
2021/07/18 11:23:04;;;;;;;;;;;;;;;28.21;100.00;101141.84;5081102;28;20018;-68
2021/07/18 11:25:43;;;;;;;;;;;;;;;28.44;96.71;101143.94;5072297;28;20396;-68
2021/07/18 11:28:27;;;;;;;;;;;;;;;29.02;97.64;101150.03;5071074;28;20007;-69
2021/07/18 11:30:54;;;;;;;;;;;;;;;28.66;100.00;101138.75;5072118;28;20019;-68
2021/07/18 11:33:27;;;;;;;;;;;;;;;28.78;95.75;101143.53;5051204;28;19928;-68
2021/07/18 11:35:53;;;;;;;;;;;;;;;28.45;100.00;101144.78;5052290;28;20015;-68
2021/07/18 11:38:19;;;;;;;;;;;;;;;28.06;98.12;101143.09;5051817;28;20027;-68
2021/07/18 11:40:47;;;;;;;;;;;;;;;27.51;100.00;101135.44;5052077;28;20442;-68
2021/07/18 11:43:14;;;;;;;;;;;;;;;28.33;100.00;101137.19;5078724;28;19959;-68
2021/07/18 11:45:40;;;;;;;;;;;;;;;29.09;100.00;101134.06;5083551;28;20015;-69
2021/07/18 11:48:07;;;;;;;;;;;;;;;28.76;94.61;101124.22;5074886;28;20019;-68
2021/07/18 11:50:33;;;;;;;;;;;;;;;29.64;100.00;101118.97;5092088;28;20211;-68
2021/07/18 11:52:59;;;;;;;;;;;;;;;29.26;93.34;101125.00;5072447;28;20475;-68
2021/07/18 11:55:26;;;;;;;;;;;;;;;27.85;97.24;101130.41;5071496;28;19959;-68
2021/07/18 11:57:53;;;;;;;;;;;;;;;27.96;100.00;101133.50;5086959;28;20268;-68
2021/07/18 12:00:20;;;;;;;;;;;;;;;28.78;100.00;101127.59;5091752;28;20409;-68
2021/07/18 12:02:47;;;;;;;;;;;;;;;29.22;93.17;101102.22;5089221;28;20023;-68
2021/07/18 12:05:14;;;;;;;;;;;;;;;29.44;100.00;101115.66;5090230;28;19928;-68
2021/07/18 12:07:41;;;;;;;;;;;;;;;28.68;96.07;101117.00;5083696;28;19966;-68
2021/07/18 12:10:17;;;;;;;;;;;;;;;28.61;92.94;101118.16;5072815;28;19924;-68
2021/07/18 12:12:46;;;;;;;;;;;;;;;29.26;90.47;101111.88;5071471;28;20399;-68
2021/07/18 12:15:14;;;;;;;;;;;;;;;29.43;90.90;101117.59;5072619;28;20014;-69
2021/07/18 12:17:40;;;;;;;;;;;;;;;28.96;92.30;101118.34;5071384;28;19928;-68
2021/07/18 12:20:08;;;;;;;;;;;;;;;28.75;91.88;101104.91;5086317;28;20018;-68
2021/07/18 12:22:35;;;;;;;;;;;;;;;30.15;100.00;101107.28;5090520;28;19924;-69
2021/07/18 12:25:01;;;;;;;;;;;;;;;30.52;79.88;101102.22;5077712;28;19970;-68
2021/07/18 12:27:28;;;;;;;;;;;;;;;29.90;85.31;101114.00;5076412;28;20396;-67